Time;durP1;ratioP1;P1;durP2;ratioP2;P2;SDS_P1;SDS_P2;PMS_P1;PMS_P2;Temp;Humidity;BMP_temperature;BMP_pressure;BME280_temperature;BME280_humidity;BME280_pressure;Samples;Min_cycle;Max_cycle;Signal;HPM_P1;HPM_P2
2021/12/16 00:01:41;;;;;;;143.13;136.38;;;;;;;9.65;73.08;102507.19;681236;28;137933;-70
2021/12/16 00:01:52;;;;;;;716.25;677.80;;;;;;;9.73;73.17;102510.13;680479;28;137669;-70
2021/12/16 00:02:14;;;;;;;722.45;683.53;;;;;;;9.73;73.49;102503.84;683632;28;47683;-70
2021/12/16 00:02:55;;;;;;;735.65;695.63;;;;;;;9.76;73.40;102513.53;683059;28;69432;-70
2021/12/16 00:05:25;;;;;;;714.42;676.40;;;;;;;9.75;72.82;102512.69;682133;28;158726;-70
2021/12/16 00:07:26;;;;;;;361.33;344.33;;;;;;;9.76;72.91;102513.53;680155;28;137535;-70
2021/12/16 00:07:57;;;;;;;247.38;235.73;;;;;;;9.77;73.18;102513.41;679198;28;136099;-70
2021/12/16 00:08:25;;;;;;;238.18;227.00;;;;;;;9.79;72.91;102508.72;680531;28;136248;-70
2021/12/16 00:08:54;;;;;;;240.73;229.45;;;;;;;9.77;72.96;102515.25;680332;28;136243;-70
2021/12/16 00:09:22;;;;;;;236.68;225.38;;;;;;;9.74;72.87;102509.13;679741;28;160869;-70
2021/12/16 00:09:53;;;;;;;242.05;230.73;;;;;;;9.76;72.88;102509.00;680820;28;138499;-71
2021/12/16 00:10:22;;;;;;;222.48;212.05;;;;;;;9.76;73.07;102518.94;680747;28;137833;-70
2021/12/16 00:10:51;;;;;;;224.40;213.80;;;;;;;9.74;72.91;102510.97;680512;28;137302;-70
2021/12/16 00:11:24;;;;;;;238.63;227.23;;;;;;;9.76;72.82;102521.63;683212;28;135430;-69
2021/12/16 00:20:02;;;;;;;198.15;188.70;;;;;;;9.77;73.08;102512.56;680799;28;135704;-70
2021/12/16 00:30:05;;;;;;;570.88;542.38;;;;;;;9.87;72.88;102508.09;673920;29;158921;-70
2021/12/16 00:31:02;;;;;;;725.35;686.33;;;;;;;9.86;72.93;102512.63;674914;29;137533;-70
2021/12/16 00:31:24;;;;;;;756.35;714.78;;;;;;;9.85;72.55;102504.66;679247;28;137425;-70
2021/12/16 00:31:52;;;;;;;774.42;731.08;;;;;;;9.89;72.61;102515.09;679196;28;137644;-70
2021/12/16 00:32:32;;;;;;;765.47;723.05;;;;;;;9.88;72.67;102515.22;677504;28;137376;-70
2021/12/16 00:33:11;;;;;;;768.22;725.60;;;;;;;9.86;72.63;102509.09;674226;28;136373;-71
2021/12/16 00:33:36;;;;;;;487.33;463.27;;;;;;;9.82;72.58;102502.22;674810;29;137726;-70
2021/12/16 00:34:04;;;;;;;343.85;327.95;;;;;;;9.84;72.53;102509.22;675503;29;137917;-70
2021/12/16 00:34:29;;;;;;;312.42;298.08;;;;;;;9.83;72.80;102515.59;680179;28;115145;-70
2021/12/16 00:34:51;;;;;;;349.45;333.45;;;;;;;9.83;72.32;102503.97;682892;28;136434;-71
2021/12/16 00:35:13;;;;;;;327.25;312.23;;;;;;;9.82;72.38;102508.47;688571;28;21546;-70
2021/12/16 00:35:34;;;;;;;307.55;293.25;;;;;;;9.82;72.72;102504.94;687735;28;46421;-70
2021/12/16 00:35:56;;;;;;;294.23;280.55;;;;;;;9.84;72.86;102513.75;687610;28;46300;-70
2021/12/16 00:36:17;;;;;;;304.75;290.67;;;;;;;9.85;72.41;102515.47;685969;28;44382;-71
2021/12/16 00:36:40;;;;;;;283.40;270.20;;;;;;;9.84;72.60;102511.03;688258;28;22394;-70
2021/12/16 00:37:03;;;;;;;299.15;285.30;;;;;;;9.84;72.39;102511.03;687322;28;69782;-70
2021/12/16 00:37:26;;;;;;;294.83;281.08;;;;;;;9.85;72.75;102515.47;684242;28;44372;-70
2021/12/16 00:37:50;;;;;;;315.75;300.85;;;;;;;9.85;72.38;102513.63;681067;28;90411;-71
2021/12/16 00:38:11;;;;;;;313.77;299.08;;;;;;;9.85;72.81;102510.91;682202;28;92412;-71
2021/12/16 00:38:34;;;;;;;308.42;294.30;;;;;;;9.88;72.86;102516.06;684096;28;22249;-70
2021/12/16 00:38:55;;;;;;;343.20;327.35;;;;;;;9.88;72.73;102517.91;683004;28;67492;-70
2021/12/16 00:39:20;;;;;;;341.38;325.45;;;;;;;9.87;72.37;102510.78;683786;28;69371;-71
2021/12/16 00:39:44;;;;;;;318.00;303.20;;;;;;;9.87;72.21;102513.50;685442;28;69553;-70
2021/12/16 00:40:11;;;;;;;329.08;313.70;;;;;;;9.86;72.27;102520.75;683755;28;116072;-70
2021/12/16 00:40:33;;;;;;;366.42;349.30;;;;;;;9.88;72.59;102517.91;683395;28;137823;-70
2021/12/16 00:40:56;;;;;;;363.33;346.42;;;;;;;9.89;72.74;102516.91;685112;28;22435;-70
2021/12/16 00:41:17;;;;;;;362.13;345.25;;;;;;;9.89;72.49;102520.47;683778;28;69343;-70
2021/12/16 00:41:42;;;;;;;392.38;374.05;;;;;;;9.89;72.69;102523.19;683864;28;45240;-70
2021/12/16 00:42:09;;;;;;;403.42;384.63;;;;;;;9.87;72.53;102525.16;681971;28;92219;-71
2021/12/16 00:42:39;;;;;;;522.97;497.52;;;;;;;9.88;72.51;102515.22;677959;28;137612;-70
2021/12/16 00:43:13;;;;;;;739.17;698.90;;;;;;;9.89;72.35;102522.31;679232;28;155118;-70
2021/12/16 00:43:40;;;;;;;796.10;751.13;;;;;;;9.89;72.25;102520.47;679655;28;159946;-70
2021/12/16 00:44:07;;;;;;;803.08;757.60;;;;;;;9.90;72.79;102524.03;680597;28;138048;-70
2021/12/16 00:45:43;;;;;;;802.33;757.13;;;;;;;9.95;72.65;102511.00;677386;28;137367;-70
2021/12/16 00:46:17;;;;;;;803.08;757.80;;;;;;;9.93;72.12;102519.22;683139;28;136044;-71
2021/12/16 00:46:59;;;;;;;784.93;741.03;;;;;;;9.95;72.08;102518.25;682866;28;138346;-70
2021/12/16 00:47:33;;;;;;;798.92;753.70;;;;;;;9.92;72.46;102514.81;679520;28;137500;-70
2021/12/16 00:47:58;;;;;;;760.22;718.15;;;;;;;9.92;72.01;102524.75;677907;28;137811;-69
2021/12/16 00:48:23;;;;;;;777.75;734.00;;;;;;;9.93;72.22;102519.22;677601;28;114618;-71
2021/12/16 00:49:06;;;;;;;769.35;726.35;;;;;;;9.92;72.29;102522.94;675829;29;159221;-70
2021/12/16 00:49:36;;;;;;;363.45;346.48;;;;;;;9.93;72.37;102518.38;678932;28;160606;-70
2021/12/16 00:50:06;;;;;;;268.08;255.60;;;;;;;9.96;72.20;102519.97;676256;28;138509;-70
2021/12/16 00:54:09;;;;;;;150.07;142.98;;;;;;;9.94;72.14;102520.09;683187;28;137805;-70
2021/12/16 00:54:33;;;;;;;191.48;182.35;;;;;;;9.93;72.07;102513.81;683187;28;137823;-70
2021/12/16 00:55:03;;;;;;;187.55;178.52;;;;;;;9.94;72.27;102517.41;685183;28;69281;-71
2021/12/16 00:55:34;;;;;;;169.57;161.45;;;;;;;9.95;71.87;102518.25;683852;28;138035;-71
2021/12/16 00:55:58;;;;;;;176.23;167.77;;;;;;;9.96;72.16;102519.97;680904;28;161450;-71
2021/12/16 00:56:20;;;;;;;178.88;170.27;;;;;;;9.95;72.07;102519.09;683296;28;92295;-70
2021/12/16 00:56:43;;;;;;;188.85;179.80;;;;;;;9.97;72.24;102513.56;685410;28;24195;-70
2021/12/16 00:57:11;;;;;;;173.25;165.00;;;;;;;9.98;72.12;102518.84;683650;28;92356;-70
2021/12/16 00:57:34;;;;;;;180.93;172.27;;;;;;;9.95;71.84;102515.53;680074;28;137692;-70
2021/12/16 00:57:56;;;;;;;172.40;164.15;;;;;;;9.96;72.24;102519.97;681446;28;67493;-70
2021/12/16 00:58:24;;;;;;;188.40;179.43;;;;;;;9.98;72.06;102517.97;684538;28;22395;-70
2021/12/16 00:58:51;;;;;;;181.32;172.68;;;;;;;9.99;71.97;102522.41;680462;28;137903;-70
2021/12/16 00:59:15;;;;;;;166.60;158.60;;;;;;;9.99;72.13;102525.94;680422;28;138033;-70
2021/12/16 00:59:39;;;;;;;187.18;178.23;;;;;;;9.98;72.09;102516.13;680851;28;69336;-70
2021/12/16 01:00:04;;;;;;;178.23;169.65;;;;;;;9.98;71.89;102520.69;679519;28;92299;-70
2021/12/16 01:00:30;;;;;;;176.77;168.35;;;;;;;9.97;72.13;102513.56;679337;28;137009;-70
2021/12/16 01:00:59;;;;;;;191.05;181.85;;;;;;;9.97;72.23;102521.66;681135;28;92118;-70
2021/12/16 01:01:34;;;;;;;181.18;172.68;;;;;;;9.96;72.11;102518.13;679244;28;137911;-70
2021/12/16 01:02:10;;;;;;;188.23;179.20;;;;;;;9.99;72.39;102512.47;677977;28;137421;-70
2021/12/16 01:02:56;;;;;;;173.02;164.77;;;;;;;10.01;72.18;102515.88;680357;28;135972;-71
2021/12/16 01:03:24;;;;;;;181.43;172.73;;;;;;;10.02;71.90;102523.00;678629;28;154885;-70
2021/12/16 01:03:55;;;;;;;169.63;161.48;;;;;;;10.00;72.32;102519.56;680092;28;137594;-70
2021/12/16 01:04:56;;;;;;;185.98;177.00;;;;;;;10.02;72.03;102520.28;680233;28;137951;-70
2021/12/16 01:06:11;;;;;;;176.35;168.05;;;;;;;9.99;71.80;102512.47;675063;29;136149;-70
2021/12/16 01:06:54;;;;;;;180.82;172.30;;;;;;;10.03;72.11;102524.72;682339;28;137480;-70
2021/12/16 01:08:20;;;;;;;183.90;174.98;;;;;;;10.06;72.13;102529.88;679699;28;180253;-70
2021/12/16 01:09:13;;;;;;;204.50;194.82;;;;;;;10.04;71.77;102515.63;679187;28;137387;-70
2021/12/16 01:10:16;;;;;;;187.80;179.00;;;;;;;10.07;71.62;102519.91;679063;28;136461;-70
2021/12/16 01:33:57;;;;;;;226.48;215.80;;;;;;;10.01;71.01;102534.78;683504;28;135998;-70
2021/12/16 01:34:24;;;;;;;579.60;550.58;;;;;;;10.00;71.35;102533.06;684222;28;135455;-70
2021/12/16 01:34:57;;;;;;;837.17;789.58;;;;;;;9.97;70.97;102536.03;688115;28;60341;-70
2021/12/16 01:35:29;;;;;;;856.33;807.33;;;;;;;9.99;71.16;102536.75;687426;28;60107;-69
2021/12/16 01:36:06;;;;;;;866.67;817.08;;;;;;;10.02;71.30;102539.19;684904;28;129969;-70
2021/12/16 01:36:46;;;;;;;649.63;614.47;;;;;;;10.04;71.37;102539.06;682494;28;137564;-70
2021/12/16 01:38:35;;;;;;;241.68;230.18;;;;;;;10.02;71.58;102536.50;682776;28;136063;-70
2021/12/16 01:40:00;;;;;;;250.50;238.82;;;;;;;10.05;71.60;102536.22;675877;29;136011;-70
2021/12/16 01:40:44;;;;;;;217.13;206.90;;;;;;;10.06;71.21;102531.69;672544;29;136120;-70
2021/12/16 01:42:18;;;;;;;236.32;225.18;;;;;;;10.09;71.16;102539.53;679738;28;137352;-70
2021/12/16 01:45:43;;;;;;;216.60;206.43;;;;;;;10.05;71.16;102530.00;681950;28;136001;-70
2021/12/16 01:46:33;;;;;;;252.77;240.98;;;;;;;10.05;71.17;102533.53;681844;28;137743;-70
2021/12/16 01:49:12;;;;;;;264.73;252.27;;;;;;;10.03;70.77;102531.94;678716;28;136102;-70
2021/12/16 01:49:46;;;;;;;306.67;292.55;;;;;;;10.04;70.71;102537.22;682460;28;137411;-71
2021/12/16 01:50:14;;;;;;;280.40;267.23;;;;;;;10.03;70.81;102531.94;683010;28;136003;-70
2021/12/16 01:50:39;;;;;;;332.45;317.05;;;;;;;10.05;71.40;102549.72;683081;28;138052;-70
2021/12/16 01:51:06;;;;;;;323.67;308.70;;;;;;;10.08;71.50;102535.13;683733;28;113932;-70
2021/12/16 01:51:36;;;;;;;321.75;307.00;;;;;;;10.07;71.05;102536.09;681760;28;138083;-70
2021/12/16 01:52:25;;;;;;;354.65;338.33;;;;;;;10.06;70.84;102540.66;679892;28;136080;-70
2021/12/16 01:54:12;;;;;;;626.58;594.15;;;;;;;10.03;70.96;102538.22;680274;28;137675;-71
2021/12/16 01:54:47;;;;;;;738.63;698.20;;;;;;;10.00;70.65;102541.19;683074;28;137465;-71
2021/12/16 01:55:14;;;;;;;736.33;696.17;;;;;;;10.00;70.87;102541.19;682776;28;136561;-69
2021/12/16 01:55:43;;;;;;;922.53;869.13;;;;;;;9.98;71.12;102531.47;682729;28;136160;-71
2021/12/16 01:56:16;;;;;;;924.92;871.33;;;;;;;9.98;70.70;102532.31;682386;28;137440;-70
2021/12/16 01:56:45;;;;;;;338.80;322.98;;;;;;;9.99;71.13;102539.44;683235;28;129611;-70
2021/12/16 01:57:14;;;;;;;254.20;242.25;;;;;;;9.99;71.02;102539.44;682887;28;136206;-70
2021/12/16 01:57:42;;;;;;;247.68;236.10;;;;;;;9.99;70.87;102542.16;683477;28;137508;-70
2021/12/16 01:58:15;;;;;;;230.75;219.70;;;;;;;9.98;71.21;102535.03;682959;28;156000;-71
2021/12/16 01:58:37;;;;;;;215.05;204.95;;;;;;;9.98;70.63;102532.31;681741;28;137794;-71
2021/12/16 01:59:03;;;;;;;238.55;227.63;;;;;;;9.98;71.04;102536.88;683424;28;22938;-71
2021/12/16 01:59:32;;;;;;;214.57;204.52;;;;;;;10.00;71.20;102532.19;674691;29;136424;-70
2021/12/16 02:00:00;;;;;;;204.00;194.40;;;;;;;9.99;70.91;102536.75;673620;28;160688;-70
2021/12/16 02:00:41;;;;;;;223.63;213.20;;;;;;;9.97;71.39;102525.25;674694;29;138013;-70
2021/12/16 02:01:11;;;;;;;213.27;203.30;;;;;;;10.04;71.07;102537.22;674081;29;137529;-71
2021/12/16 02:01:34;;;;;;;219.77;209.48;;;;;;;10.06;71.36;102540.66;674629;28;137396;-70
2021/12/16 02:02:03;;;;;;;189.60;180.63;;;;;;;10.06;71.01;102528.97;676288;29;69421;-70
2021/12/16 02:02:37;;;;;;;218.57;208.23;;;;;;;10.05;70.88;102532.69;674761;29;135840;-70
2021/12/16 02:03:02;;;;;;;193.93;184.63;;;;;;;10.03;70.98;102540.91;674634;29;157782;-71
2021/12/16 02:03:37;;;;;;;204.15;194.43;;;;;;;10.04;70.77;102531.81;678936;28;113125;-70
2021/12/16 02:04:08;;;;;;;175.50;167.30;;;;;;;10.04;71.01;102533.66;678983;28;137421;-70
2021/12/16 02:04:40;;;;;;;104.80;100.00;;;;;;;10.05;70.82;102541.63;683085;28;137364;-70
2021/12/16 02:05:17;;;;;;;114.57;109.30;;;;;;;10.04;70.72;102541.75;683227;28;137791;-70
2021/12/16 02:05:57;;;;;;;104.32;99.63;;;;;;;10.04;71.02;102539.91;683207;28;135960;-70
2021/12/16 02:06:40;;;;;;;99.78;95.25;;;;;;;10.00;70.80;102529.50;680383;28;137612;-71
2021/12/16 02:07:10;;;;;;;95.60;91.18;;;;;;;10.04;70.55;102539.06;681912;28;135995;-70
2021/12/16 02:07:51;;;;;;;92.07;87.82;;;;;;;10.01;70.67;102532.06;680913;28;158942;-70
2021/12/16 02:08:20;;;;;;;138.13;131.70;;;;;;;10.02;70.67;102528.41;681465;28;156006;-71
2021/12/16 02:08:42;;;;;;;188.35;179.35;;;;;;;9.99;70.57;102528.66;681097;28;160599;-70
2021/12/16 02:09:07;;;;;;;193.15;183.90;;;;;;;10.01;70.99;102534.78;680549;28;45246;-70
2021/12/16 02:09:35;;;;;;;209.50;199.65;;;;;;;9.99;71.00;102535.91;678576;29;115961;-71
2021/12/16 02:10:02;;;;;;;188.68;179.65;;;;;;;9.98;70.78;102534.19;677288;29;138124;-70
2021/12/16 02:10:30;;;;;;;194.43;185.23;;;;;;;9.97;70.90;102536.03;677623;29;138061;-70
2021/12/16 02:11:51;;;;;;;205.43;195.63;;;;;;;10.00;70.78;102537.59;677819;28;138670;-70
2021/12/16 02:12:21;;;;;;;185.57;176.77;;;;;;;9.98;71.18;102543.13;680150;28;135961;-70
2021/12/16 02:12:54;;;;;;;193.63;184.38;;;;;;;9.98;70.96;102537.72;681545;28;134173;-70
2021/12/16 02:13:38;;;;;;;222.02;211.82;;;;;;;10.00;70.89;102540.28;681780;28;137292;-70
2021/12/16 02:27:49;;;;;;;128.07;122.10;;;;;;;9.93;70.91;102535.41;682595;28;136038;-70
2021/12/16 02:28:27;;;;;;;157.95;150.35;;;;;;;9.90;71.00;102530.28;680332;28;179364;-70
2021/12/16 02:29:06;;;;;;;162.77;154.88;;;;;;;9.89;71.01;102525.88;680804;28;135624;-70
2021/12/16 02:29:45;;;;;;;301.42;287.23;;;;;;;9.84;70.90;102522.72;682787;28;136339;-70
2021/12/16 02:31:22;;;;;;;328.10;312.95;;;;;;;9.89;70.84;102533.97;678972;28;136868;-71
2021/12/16 02:31:55;;;;;;;374.27;356.92;;;;;;;9.87;70.77;102541.34;680252;28;134551;-71
2021/12/16 02:32:35;;;;;;;401.13;382.15;;;;;;;9.87;70.65;102540.47;679720;28;137926;-70
2021/12/16 02:33:14;;;;;;;407.13;388.05;;;;;;;9.90;71.34;102532.97;680802;28;104128;-70
2021/12/16 02:33:52;;;;;;;439.77;419.23;;;;;;;9.94;71.27;102541.69;680430;28;160251;-71
2021/12/16 02:34:24;;;;;;;797.60;753.15;;;;;;;9.89;70.95;102542.06;680524;28;138311;-71
2021/12/16 02:35:00;;;;;;;946.47;891.60;;;;;;;9.92;70.86;102547.22;677531;28;160687;-70
2021/12/16 02:35:32;;;;;;;446.95;425.60;;;;;;;9.92;71.03;102543.63;678720;28;137584;-70
2021/12/16 02:36:01;;;;;;;358.83;342.02;;;;;;;9.91;70.81;102534.69;679017;28;160502;-71
2021/12/16 02:36:29;;;;;;;373.73;356.38;;;;;;;9.90;70.80;102532.13;679934;28;137775;-70
2021/12/16 02:36:53;;;;;;;382.30;364.38;;;;;;;9.91;70.93;102533.84;682790;28;137977;-71
2021/12/16 02:37:17;;;;;;;419.08;399.38;;;;;;;9.92;71.26;102538.25;684284;28;90390;-70
2021/12/16 02:37:47;;;;;;;659.83;624.95;;;;;;;9.91;70.66;102536.53;678163;28;137928;-70
2021/12/16 02:38:08;;;;;;;924.80;871.33;;;;;;;9.89;71.19;102544.78;679646;28;138104;-71
2021/12/16 02:38:33;;;;;;;799.08;754.55;;;;;;;9.90;71.15;102540.22;684268;28;22392;-70
2021/12/16 02:38:59;;;;;;;551.42;524.50;;;;;;;9.87;71.06;102538.66;680383;28;137597;-70
2021/12/16 02:39:23;;;;;;;752.92;711.20;;;;;;;9.84;70.99;102532.63;681444;28;138271;-70
2021/12/16 02:39:46;;;;;;;777.20;734.45;;;;;;;9.90;71.23;102537.53;682646;28;115025;-70
2021/12/16 02:40:08;;;;;;;854.25;805.85;;;;;;;9.89;70.83;102543.88;684361;28;69434;-71
2021/12/16 02:40:30;;;;;;;885.17;834.40;;;;;;;9.86;70.76;102541.47;685621;28;45067;-70
2021/12/16 02:40:52;;;;;;;553.60;525.17;;;;;;;9.83;70.80;102534.50;685678;28;21760;-70
2021/12/16 02:41:14;;;;;;;382.75;364.73;;;;;;;9.84;71.12;102532.63;682670;28;68491;-71
2021/12/16 02:41:39;;;;;;;358.90;342.08;;;;;;;9.82;71.05;102527.38;684965;28;22276;-70
2021/12/16 02:42:04;;;;;;;325.33;310.23;;;;;;;9.84;71.30;102532.63;681561;28;137784;-70
2021/12/16 02:42:35;;;;;;;341.85;325.85;;;;;;;9.84;71.21;102529.94;681038;28;114769;-70
2021/12/16 02:43:05;;;;;;;350.50;334.20;;;;;;;9.84;71.24;102535.34;655928;28;159626;-70
2021/12/16 02:43:55;;;;;;;349.13;332.95;;;;;;;9.82;71.09;102542.72;681144;28;131447;-70
2021/12/16 02:44:30;;;;;;;370.60;353.45;;;;;;;9.82;71.13;102545.41;680169;28;137694;-70
2021/12/16 02:48:31;;;;;;;414.60;394.98;;;;;;;9.78;71.42;102539.41;673391;29;157818;-70
2021/12/16 02:48:52;;;;;;;379.40;361.40;;;;;;;9.79;71.64;102537.56;675063;29;136402;-70
2021/12/16 02:49:16;;;;;;;401.58;382.58;;;;;;;9.76;71.57;102537.81;676324;29;92345;-70
2021/12/16 02:49:39;;;;;;;382.20;364.42;;;;;;;9.76;71.76;102535.97;677354;28;46595;-70
2021/12/16 02:50:00;;;;;;;410.90;391.52;;;;;;;9.77;71.78;102544.94;682409;28;69252;-70
2021/12/16 02:50:24;;;;;;;447.98;427.08;;;;;;;9.74;71.79;102535.25;681506;28;22448;-70
2021/12/16 02:50:45;;;;;;;439.23;418.73;;;;;;;9.76;71.45;102538.66;679118;29;92322;-70
2021/12/16 02:51:12;;;;;;;480.35;457.50;;;;;;;9.74;71.76;102536.09;681492;29;23612;-70
2021/12/16 02:51:33;;;;;;;635.72;603.13;;;;;;;9.74;71.71;102541.50;678607;28;136348;-71
2021/12/16 02:51:57;;;;;;;851.70;803.38;;;;;;;9.72;71.44;102538.06;685540;28;22375;-70
2021/12/16 02:52:21;;;;;;;925.40;871.92;;;;;;;9.72;71.88;102543.47;685099;28;69439;-70
2021/12/16 02:52:42;;;;;;;920.05;866.92;;;;;;;9.74;71.63;102538.78;683859;28;115274;-71
2021/12/16 02:53:03;;;;;;;743.53;703.30;;;;;;;9.76;71.42;102532.44;682997;28;21505;-70
2021/12/16 02:53:24;;;;;;;668.33;633.20;;;;;;;9.74;71.50;102530.69;682911;28;22396;-70
2021/12/16 02:53:48;;;;;;;839.55;791.78;;;;;;;9.73;71.57;102533.53;683134;28;21512;-70
2021/12/16 02:54:10;;;;;;;863.50;814.40;;;;;;;9.72;71.54;102535.38;681048;28;92245;-70
2021/12/16 02:54:31;;;;;;;524.28;498.02;;;;;;;9.73;71.90;102528.13;684298;28;1220;-70
2021/12/16 02:54:53;;;;;;;432.98;412.60;;;;;;;9.71;71.68;102528.25;682017;28;46391;-70
2021/12/16 02:55:17;;;;;;;422.27;402.50;;;;;;;9.71;71.77;102530.09;681095;28;46353;-70
2021/12/16 02:55:38;;;;;;;421.33;401.35;;;;;;;9.68;71.56;102524.97;680817;28;92791;-71
2021/12/16 02:55:59;;;;;;;409.63;390.58;;;;;;;9.71;71.66;102524.72;681029;29;21050;-70
2021/12/16 02:56:20;;;;;;;474.33;451.85;;;;;;;9.70;71.90;102523.88;681487;28;16671;-70
2021/12/16 02:56:42;;;;;;;484.80;461.75;;;;;;;9.69;71.70;102519.44;683152;28;23438;-70
2021/12/16 02:57:04;;;;;;;489.35;466.05;;;;;;;9.73;71.49;102530.81;682078;29;21541;-70
2021/12/16 02:57:26;;;;;;;529.55;503.88;;;;;;;9.73;71.73;102528.13;682277;28;69281;-70
2021/12/16 02:57:51;;;;;;;589.78;560.00;;;;;;;9.73;71.63;102528.13;682121;28;22419;-70
2021/12/16 02:58:13;;;;;;;851.10;802.58;;;;;;;9.73;71.81;102526.31;680086;28;138400;-71
2021/12/16 02:58:38;;;;;;;945.75;890.67;;;;;;;9.73;71.39;102529.00;683760;28;23299;-71
2021/12/16 02:59:00;;;;;;;910.47;858.03;;;;;;;9.74;71.87;102528.00;679724;28;137959;-70
2021/12/16 02:59:26;;;;;;;904.45;852.25;;;;;;;9.71;71.41;102522.84;682969;28;45269;-71
2021/12/16 02:59:50;;;;;;;961.25;905.10;;;;;;;9.75;71.25;102531.56;679225;28;138082;-71
2021/12/16 03:00:15;;;;;;;936.75;882.20;;;;;;;9.75;71.42;102526.19;684801;28;50397;-71
2021/12/16 03:00:41;;;;;;;911.45;859.03;;;;;;;9.75;71.16;102531.56;682250;28;136505;-70
2021/12/16 03:01:09;;;;;;;556.63;527.65;;;;;;;9.74;71.37;102533.41;684083;28;92279;-71
2021/12/16 03:01:33;;;;;;;277.33;264.42;;;;;;;9.75;71.23;102536.97;682511;28;137904;-71
2021/12/16 03:02:00;;;;;;;247.50;236.00;;;;;;;9.75;71.10;102539.69;683176;28;113549;-71
2021/12/16 03:02:24;;;;;;;244.07;232.63;;;;;;;9.73;71.16;102536.22;682573;28;137713;-70
2021/12/16 03:02:48;;;;;;;232.07;221.18;;;;;;;9.71;71.32;102528.25;681474;28;67464;-71
2021/12/16 03:03:10;;;;;;;225.30;214.80;;;;;;;9.73;71.29;102539.81;681154;28;92301;-70
2021/12/16 03:03:34;;;;;;;223.88;213.35;;;;;;;9.73;71.45;102539.81;681117;28;22476;-70
2021/12/16 03:03:57;;;;;;;239.75;228.52;;;;;;;9.72;71.47;102531.84;679983;28;114669;-70
2021/12/16 03:04:20;;;;;;;218.68;208.48;;;;;;;9.70;71.19;102526.56;682931;28;47672;-70
2021/12/16 03:04:43;;;;;;;197.43;188.07;;;;;;;9.72;71.04;102529.97;681089;28;68963;-71
2021/12/16 03:05:05;;;;;;;184.50;175.73;;;;;;;9.71;71.24;102535.50;682275;28;69424;-71
2021/12/16 03:05:27;;;;;;;98.28;93.72;;;;;;;9.72;70.93;102531.84;683250;28;46400;-70
2021/12/16 03:05:48;;;;;;;78.15;74.50;;;;;;;9.72;71.38;102531.84;682745;28;44391;-71
2021/12/16 03:06:10;;;;;;;91.40;87.15;;;;;;;9.72;70.98;102526.44;683166;28;45239;-70
2021/12/16 03:06:34;;;;;;;88.32;84.22;;;;;;;9.71;71.21;102532.81;682555;28;46329;-70
2021/12/16 03:06:57;;;;;;;77.60;74.00;;;;;;;9.70;71.04;102531.97;682056;28;69239;-71
2021/12/16 03:07:20;;;;;;;85.57;81.65;;;;;;;9.70;71.04;102523.88;683299;28;91237;-71
2021/12/16 03:07:42;;;;;;;87.28;83.18;;;;;;;9.76;71.09;102527.03;683102;28;44373;-70
2021/12/16 03:08:05;;;;;;;74.50;70.97;;;;;;;9.76;71.44;102535.13;684382;28;68443;-70
2021/12/16 03:08:26;;;;;;;77.15;73.57;;;;;;;9.74;70.89;102533.41;685477;28;49799;-71
2021/12/16 03:08:48;;;;;;;70.43;67.15;;;;;;;9.74;71.16;102535.25;684775;28;18844;-70
2021/12/16 03:09:14;;;;;;;80.20;76.53;;;;;;;9.75;71.03;102534.28;683659;28;45384;-70
2021/12/16 03:10:20;;;;;;;73.78;70.35;;;;;;;9.75;71.22;102531.56;681899;28;138072;-70
2021/12/16 03:11:40;;;;;;;176.98;168.50;;;;;;;9.76;70.93;102533.28;677179;29;135955;-70
2021/12/16 03:12:29;;;;;;;189.43;180.38;;;;;;;9.78;70.97;102534.03;675490;29;137471;-70
2021/12/16 03:12:56;;;;;;;165.90;158.05;;;;;;;9.78;71.10;102531.31;676183;28;136532;-71
2021/12/16 03:13:25;;;;;;;180.52;171.82;;;;;;;9.78;70.68;102536.72;680084;28;137760;-70
2021/12/16 03:14:02;;;;;;;162.50;154.70;;;;;;;9.76;70.96;102535.97;682480;28;137590;-70
2021/12/16 03:14:33;;;;;;;153.95;146.65;;;;;;;9.74;70.72;102535.25;680366;28;126811;-70
2021/12/16 03:15:01;;;;;;;161.50;153.80;;;;;;;9.73;70.86;102536.22;679614;28;137649;-70
2021/12/16 03:15:36;;;;;;;165.63;157.65;;;;;;;9.72;70.87;102531.84;679808;28;136305;-70
2021/12/16 03:16:09;;;;;;;167.60;159.60;;;;;;;9.70;70.62;102529.25;679186;28;160197;-70
2021/12/16 03:16:41;;;;;;;158.82;151.20;;;;;;;9.71;70.91;102535.50;681132;28;158900;-71
2021/12/16 03:17:14;;;;;;;161.70;153.98;;;;;;;9.70;70.76;102536.47;684575;28;62471;-70
2021/12/16 03:17:43;;;;;;;170.93;162.68;;;;;;;9.72;71.15;102537.22;680919;28;137431;-70
2021/12/16 03:18:14;;;;;;;161.02;153.25;;;;;;;9.72;71.20;102535.38;679599;28;156682;-70
2021/12/16 03:18:44;;;;;;;178.95;170.32;;;;;;;9.73;71.08;102537.09;680859;28;137442;-71
2021/12/16 03:19:14;;;;;;;164.65;156.77;;;;;;;9.72;70.92;102534.53;678165;29;137575;-71
2021/12/16 03:19:48;;;;;;;180.00;171.43;;;;;;;9.75;70.72;102534.28;678354;28;138977;-71
2021/12/16 03:20:16;;;;;;;165.05;157.18;;;;;;;9.74;70.59;102535.25;678068;29;138289;-70
2021/12/16 03:20:43;;;;;;;174.73;166.30;;;;;;;9.77;70.88;102535.00;680356;28;136069;-71
2021/12/16 03:21:14;;;;;;;184.20;175.20;;;;;;;9.76;70.62;102537.81;682865;28;137744;-70
2021/12/16 03:21:41;;;;;;;173.27;164.88;;;;;;;9.74;70.95;102530.69;682757;28;160610;-71
2021/12/16 03:22:05;;;;;;;188.30;179.27;;;;;;;9.73;70.67;102530.81;684608;28;138529;-70
2021/12/16 03:22:47;;;;;;;172.38;164.07;;;;;;;9.74;70.51;102537.94;686983;28;67273;-70
2021/12/16 03:23:30;;;;;;;173.25;164.98;;;;;;;9.75;70.66;102536.97;683372;28;156470;-70
2021/12/16 03:25:02;;;;;;;177.38;168.88;;;;;;;9.73;71.00;102538.91;672021;29;160607;-70
2021/12/16 03:25:35;;;;;;;201.27;191.73;;;;;;;9.73;71.00;102531.72;683117;28;137667;-71
2021/12/16 03:26:21;;;;;;;181.32;172.60;;;;;;;9.73;70.61;102537.09;683653;28;132289;-70
2021/12/16 03:27:56;;;;;;;189.27;180.23;;;;;;;9.73;70.70;102542.50;676860;28;136111;-70
2021/12/16 03:28:38;;;;;;;211.38;201.45;;;;;;;9.76;70.45;102543.22;677058;28;157880;-71
2021/12/16 03:29:29;;;;;;;209.93;200.05;;;;;;;9.77;70.35;102544.94;679840;28;137696;-70
2021/12/16 03:30:36;;;;;;;206.10;196.40;;;;;;;9.75;70.37;102550.47;679290;28;136039;-71
2021/12/16 03:31:43;;;;;;;205.10;195.43;;;;;;;9.76;70.41;102559.41;680685;28;136432;-71
2021/12/16 03:32:20;;;;;;;219.77;209.57;;;;;;;9.76;70.73;102546.75;679470;28;158698;-70
2021/12/16 03:33:10;;;;;;;211.90;201.80;;;;;;;9.75;70.69;102547.78;679831;28;137209;-70
2021/12/16 03:34:39;;;;;;;219.35;208.95;;;;;;;9.74;70.62;102549.59;669475;29;137444;-70
2021/12/16 03:35:30;;;;;;;239.63;228.40;;;;;;;9.76;70.43;102546.75;667326;29;135974;-70
2021/12/16 03:36:04;;;;;;;223.65;213.05;;;;;;;9.79;70.79;102551.06;683302;28;136433;-70
2021/12/16 03:36:29;;;;;;;209.40;199.57;;;;;;;9.74;70.11;102544.19;683378;28;136022;-71
2021/12/16 03:37:32;;;;;;;239.23;227.90;;;;;;;9.78;70.31;102554.72;681934;28;158969;-70
2021/12/16 03:37:59;;;;;;;248.00;236.13;;;;;;;9.77;70.44;102551.19;682762;28;114986;-71
2021/12/16 03:38:20;;;;;;;235.10;223.95;;;;;;;9.76;70.43;102548.63;684252;28;114383;-71
2021/12/16 03:38:45;;;;;;;254.13;242.18;;;;;;;9.75;70.43;102542.38;685798;28;23456;-70
2021/12/16 03:39:11;;;;;;;235.82;224.73;;;;;;;9.76;70.67;102543.22;681548;28;113050;-70